sensor_id;sensor_type;location;lat;lon;timestamp;pressure;altitude;pressure_sealevel;temperature;humidity
5356;BME280;70449;52.486;13.386;2023-08-24T00:00:29;101179.72;;;25.74;100.00
5356;BME280;70449;52.486;13.386;2023-08-24T00:02:58;101183.44;;;25.45;100.00
5356;BME280;70449;52.486;13.386;2023-08-24T00:05:25;101182.56;;;25.41;100.00
5356;BME280;70449;52.486;13.386;2023-08-24T00:07:52;101190.81;;;25.60;100.00
5356;BME280;70449;52.486;13.386;2023-08-24T00:10:19;101184.94;;;25.39;100.00
5356;BME280;70449;52.486;13.386;2023-08-24T00:12:46;101185.56;;;25.21;100.00
5356;BME280;70449;52.486;13.386;2023-08-24T00:15:13;101186.78;;;24.90;100.00
5356;BME280;70449;52.486;13.386;2023-08-24T00:17:42;101195.97;;;24.60;100.00
5356;BME280;70449;52.486;13.386;2023-08-24T00:20:09;101188.59;;;24.49;100.00
5356;BME280;70449;52.486;13.386;2023-08-24T00:22:38;101190.50;;;24.71;100.00
5356;BME280;70449;52.486;13.386;2023-08-24T00:25:06;101184.97;;;24.75;100.00
5356;BME280;70449;52.486;13.386;2023-08-24T00:27:34;101176.59;;;25.12;100.00
5356;BME280;70449;52.486;13.386;2023-08-24T00:30:04;101175.31;;;24.72;100.00
5356;BME280;70449;52.486;13.386;2023-08-24T00:32:33;101170.47;;;24.69;100.00
5356;BME280;70449;52.486;13.386;2023-08-24T00:35:02;101170.97;;;24.48;100.00
5356;BME280;70449;52.486;13.386;2023-08-24T00:37:32;101168.56;;;23.97;100.00
5356;BME280;70449;52.486;13.386;2023-08-24T00:40:00;101174.97;;;24.77;100.00
5356;BME280;70449;52.486;13.386;2023-08-24T00:42:29;101181.09;;;24.56;100.00
5356;BME280;70449;52.486;13.386;2023-08-24T00:44:57;101182.63;;;24.80;100.00
5356;BME280;70449;52.486;13.386;2023-08-24T00:47:25;101179.19;;;24.94;100.00
5356;BME280;70449;52.486;13.386;2023-08-24T00:49:52;101173.22;;;24.96;100.00
5356;BME280;70449;52.486;13.386;2023-08-24T00:52:21;101179.16;;;24.91;100.00
5356;BME280;70449;52.486;13.386;2023-08-24T00:54:48;101184.25;;;24.28;100.00
5356;BME280;70449;52.486;13.386;2023-08-24T00:57:16;101181.72;;;24.19;100.00
5356;BME280;70449;52.486;13.386;2023-08-24T00:59:43;101171.78;;;24.49;100.00
5356;BME280;70449;52.486;13.386;2023-08-24T01:02:10;101169.81;;;24.26;100.00
5356;BME280;70449;52.486;13.386;2023-08-24T01:04:41;101166.84;;;24.42;100.00
5356;BME280;70449;52.486;13.386;2023-08-24T01:07:08;101174.13;;;24.20;100.00
5356;BME280;70449;52.486;13.386;2023-08-24T01:09:37;101173.38;;;24.23;100.00
5356;BME280;70449;52.486;13.386;2023-08-24T01:12:12;101177.78;;;24.24;100.00
5356;BME280;70449;52.486;13.386;2023-08-24T01:14:49;101160.94;;;24.20;100.00
5356;BME280;70449;52.486;13.386;2023-08-24T01:17:22;101166.00;;;24.38;100.00
5356;BME280;70449;52.486;13.386;2023-08-24T01:19:54;101169.91;;;24.07;100.00
5356;BME280;70449;52.486;13.386;2023-08-24T01:22:33;101163.13;;;24.08;100.00
5356;BME280;70449;52.486;13.386;2023-08-24T01:25:07;101173.97;;;23.86;100.00
5356;BME280;70449;52.486;13.386;2023-08-24T01:27:40;101172.63;;;23.57;100.00
5356;BME280;70449;52.486;13.386;2023-08-24T01:30:09;101167.22;;;23.68;100.00
5356;BME280;70449;52.486;13.386;2023-08-24T01:32:37;101174.03;;;23.67;100.00
5356;BME280;70449;52.486;13.386;2023-08-24T01:35:08;101170.50;;;23.70;100.00
5356;BME280;70449;52.486;13.386;2023-08-24T01:37:36;101171.13;;;23.40;100.00
5356;BME280;70449;52.486;13.386;2023-08-24T01:40:06;101164.22;;;23.57;100.00
5356;BME280;70449;52.486;13.386;2023-08-24T01:42:43;101171.69;;;23.49;100.00
5356;BME280;70449;52.486;13.386;2023-08-24T01:45:13;101170.31;;;23.82;100.00
5356;BME280;70449;52.486;13.386;2023-08-24T01:47:42;101168.41;;;23.44;100.00
5356;BME280;70449;52.486;13.386;2023-08-24T01:50:10;101170.50;;;23.70;100.00
5356;BME280;70449;52.486;13.386;2023-08-24T01:52:37;101175.59;;;23.87;100.00
5356;BME280;70449;52.486;13.386;2023-08-24T01:55:06;101167.22;;;23.68;100.00
5356;BME280;70449;52.486;13.386;2023-08-24T01:57:33;101167.97;;;23.65;100.00
5356;BME280;70449;52.486;13.386;2023-08-24T02:00:02;101167.22;;;23.45;100.00
5356;BME280;70449;52.486;13.386;2023-08-24T02:02:34;101161.38;;;23.53;100.00
5356;BME280;70449;52.486;13.386;2023-08-24T02:05:01;101158.38;;;23.66;100.00
5356;BME280;70449;52.486;13.386;2023-08-24T02:07:29;101158.47;;;23.46;100.00
5356;BME280;70449;52.486;13.386;2023-08-24T02:09:56;101158.28;;;23.59;100.00
5356;BME280;70449;52.486;13.386;2023-08-24T02:12:23;101154.22;;;23.56;100.00
5356;BME280;70449;52.486;13.386;2023-08-24T02:14:50;101157.72;;;23.49;100.00
5356;BME280;70449;52.486;13.386;2023-08-24T02:17:19;101163.63;;;23.25;100.00
5356;BME280;70449;52.486;13.386;2023-08-24T02:19:46;101157.00;;;23.33;100.00
5356;BME280;70449;52.486;13.386;2023-08-24T02:22:13;101163.72;;;23.51;100.00
5356;BME280;70449;52.486;13.386;2023-08-24T02:24:43;101156.59;;;23.12;100.00
5356;BME280;70449;52.486;13.386;2023-08-24T02:27:10;101160.28;;;22.96;100.00
5356;BME280;70449;52.486;13.386;2023-08-24T02:29:37;101161.00;;;23.13;100.00
5356;BME280;70449;52.486;13.386;2023-08-24T02:32:05;101161.00;;;23.13;100.00
5356;BME280;70449;52.486;13.386;2023-08-24T02:34:34;101165.41;;;23.14;100.00
5356;BME280;70449;52.486;13.386;2023-08-24T02:37:01;101170.53;;;22.92;100.00
5356;BME280;70449;52.486;13.386;2023-08-24T02:39:31;101163.78;;;23.32;100.00
5356;BME280;70449;52.486;13.386;2023-08-24T02:41:59;101162.66;;;22.78;100.00
5356;BME280;70449;52.486;13.386;2023-08-24T02:44:26;101152.47;;;23.05;100.00
5356;BME280;70449;52.486;13.386;2023-08-24T02:46:54;101156.63;;;22.76;100.00
5356;BME280;70449;52.486;13.386;2023-08-24T02:49:21;101156.72;;;23.19;100.00
5356;BME280;70449;52.486;13.386;2023-08-24T02:51:50;101145.13;;;23.17;100.00
5356;BME280;70449;52.486;13.386;2023-08-24T02:54:17;101154.44;;;22.85;100.00
5356;BME280;70449;52.486;13.386;2023-08-24T02:56:44;101159.66;;;22.68;100.00
5356;BME280;70449;52.486;13.386;2023-08-24T02:59:11;101156.19;;;22.94;100.00
5356;BME280;70449;52.486;13.386;2023-08-24T03:01:38;101152.59;;;22.74;100.00
5356;BME280;70449;52.486;13.386;2023-08-24T03:04:07;101145.25;;;23.04;100.00
5356;BME280;70449;52.486;13.386;2023-08-24T03:06:34;101152.81;;;22.84;100.00
5356;BME280;70449;52.486;13.386;2023-08-24T03:09:03;101148.19;;;22.73;100.00
5356;BME280;70449;52.486;13.386;2023-08-24T03:11:30;101157.44;;;22.77;100.00
5356;BME280;70449;52.486;13.386;2023-08-24T03:13:57;101153.06;;;22.95;100.00
5356;BME280;70449;52.486;13.386;2023-08-24T03:16:25;101150.66;;;22.78;100.00
5356;BME280;70449;52.486;13.386;2023-08-24T03:18:52;101155.97;;;22.83;100.00
5356;BME280;70449;52.486;13.386;2023-08-24T03:21:19;101156.84;;;22.87;100.00
5356;BME280;70449;52.486;13.386;2023-08-24T03:23:47;101155.69;;;23.07;100.00
5356;BME280;70449;52.486;13.386;2023-08-24T03:26:15;101153.75;;;22.92;100.00
5356;BME280;70449;52.486;13.386;2023-08-24T03:28:42;101155.69;;;23.07;100.00
5356;BME280;70449;52.486;13.386;2023-08-24T03:31:09;101152.03;;;23.03;100.00
5356;BME280;70449;52.486;13.386;2023-08-24T03:33:36;101160.88;;;23.05;100.00
5356;BME280;70449;52.486;13.386;2023-08-24T03:36:04;101152.47;;;23.05;100.00
5356;BME280;70449;52.486;13.386;2023-08-24T03:38:31;101148.78;;;23.01;100.00
5356;BME280;70449;52.486;13.386;2023-08-24T03:41:01;101140.72;;;23.39;100.00
5356;BME280;70449;52.486;13.386;2023-08-24T03:43:32;101135.31;;;23.26;100.00
5356;BME280;70449;52.486;13.386;2023-08-24T03:46:00;101135.41;;;23.34;100.00
5356;BME280;70449;52.486;13.386;2023-08-24T03:48:27;101131.25;;;23.24;100.00
5356;BME280;70449;52.486;13.386;2023-08-24T03:50:54;101134.50;;;23.26;100.00
5356;BME280;70449;52.486;13.386;2023-08-24T03:53:22;101129.16;;;23.40;100.00
5356;BME280;70449;52.486;13.386;2023-08-24T03:55:50;101140.00;;;23.65;100.00
5356;BME280;70449;52.486;13.386;2023-08-24T03:58:17;101129.72;;;23.49;100.00
5356;BME280;70449;52.486;13.386;2023-08-24T04:00:46;101127.19;;;23.64;100.00
5356;BME280;70449;52.486;13.386;2023-08-24T04:03:13;101132.28;;;23.35;100.00
5356;BME280;70449;52.486;13.386;2023-08-24T04:05:40;101129.97;;;23.41;100.00
5356;BME280;70449;52.486;13.386;2023-08-24T04:08:08;101140.38;;;23.40;100.00
5356;BME280;70449;52.486;13.386;2023-08-24T04:10:35;101140.91;;;23.26;100.00
5356;BME280;70449;52.486;13.386;2023-08-24T04:13:03;101136.91;;;23.27;100.00
5356;BME280;70449;52.486;13.386;2023-08-24T04:15:30;101134.22;;;23.12;100.00
5356;BME280;70449;52.486;13.386;2023-08-24T04:18:00;101132.22;;;23.31;100.00
5356;BME280;70449;52.486;13.386;2023-08-24T04:20:27;101142.00;;;23.22;100.00
5356;BME280;70449;52.486;13.386;2023-08-24T04:22:55;101132.91;;;23.05;100.00
5356;BME280;70449;52.486;13.386;2023-08-24T04:25:22;101137.00;;;22.92;100.00
5356;BME280;70449;52.486;13.386;2023-08-24T04:27:49;101134.13;;;22.69;100.00
5356;BME280;70449;52.486;13.386;2023-08-24T04:30:18;101134.63;;;23.14;100.00
5356;BME280;70449;52.486;13.386;2023-08-24T04:32:45;101128.28;;;23.36;100.00
5356;BME280;70449;52.486;13.386;2023-08-24T04:35:14;101132.47;;;23.03;100.00
5356;BME280;70449;52.486;13.386;2023-08-24T04:37:41;101131.97;;;23.40;100.00
5356;BME280;70449;52.486;13.386;2023-08-24T04:40:11;101132.63;;;23.34;100.00
5356;BME280;70449;52.486;13.386;2023-08-24T04:42:38;101132.19;;;23.54;100.00
5356;BME280;70449;52.486;13.386;2023-08-24T04:45:06;101143.78;;;23.53;100.00
5356;BME280;70449;52.486;13.386;2023-08-24T04:47:35;101138.16;;;23.30;100.00
5356;BME280;70449;52.486;13.386;2023-08-24T04:50:02;101132.75;;;23.18;100.00
5356;BME280;70449;52.486;13.386;2023-08-24T04:52:32;101140.69;;;23.16;100.00
5356;BME280;70449;52.486;13.386;2023-08-24T04:55:00;101139.13;;;23.18;100.00
5356;BME280;70449;52.486;13.386;2023-08-24T04:57:28;101143.75;;;23.11;100.00
5356;BME280;70449;52.486;13.386;2023-08-24T04:59:56;101150.38;;;23.22;100.00
5356;BME280;70449;52.486;13.386;2023-08-24T05:02:23;101151.69;;;22.70;100.00
5356;BME280;70449;52.486;13.386;2023-08-24T05:04:50;101155.97;;;23.22;100.00
5356;BME280;70449;52.486;13.386;2023-08-24T05:07:17;101158.25;;;23.36;100.00
5356;BME280;70449;52.486;13.386;2023-08-24T05:09:45;101153.88;;;23.58;100.00
5356;BME280;70449;52.486;13.386;2023-08-24T05:12:13;101151.66;;;23.47;100.00
5356;BME280;70449;52.486;13.386;2023-08-24T05:14:40;101138.06;;;23.46;100.00
5356;BME280;70449;52.486;13.386;2023-08-24T05:17:07;101144.88;;;23.48;100.00
5356;BME280;70449;52.486;13.386;2023-08-24T05:19:34;101146.16;;;23.74;100.00
5356;BME280;70449;52.486;13.386;2023-08-24T05:22:01;101148.03;;;24.16;100.00
5356;BME280;70449;52.486;13.386;2023-08-24T05:24:29;101150.81;;;23.89;100.00
5356;BME280;70449;52.486;13.386;2023-08-24T05:26:57;101146.66;;;24.03;100.00
5356;BME280;70449;52.486;13.386;2023-08-24T05:29:24;101150.94;;;23.96;100.00
5356;BME280;70449;52.486;13.386;2023-08-24T05:31:52;101154.56;;;23.74;100.00
5356;BME280;70449;52.486;13.386;2023-08-24T05:34:20;101154.19;;;23.98;100.00
5356;BME280;70449;52.486;13.386;2023-08-24T05:36:49;101150.44;;;23.68;100.00
5356;BME280;70449;52.486;13.386;2023-08-24T05:39:16;101149.72;;;24.20;100.00
5356;BME280;70449;52.486;13.386;2023-08-24T05:41:43;101151.53;;;23.83;100.00
5356;BME280;70449;52.486;13.386;2023-08-24T05:44:14;101155.50;;;24.31;100.00
5356;BME280;70449;52.486;13.386;2023-08-24T05:46:42;101151.41;;;24.25;100.00
5356;BME280;70449;52.486;13.386;2023-08-24T05:49:10;101146.09;;;23.93;100.00
5356;BME280;70449;52.486;13.386;2023-08-24T05:51:37;101151.94;;;24.08;100.00
5356;BME280;70449;52.486;13.386;2023-08-24T05:54:05;101148.16;;;24.23;100.00
5356;BME280;70449;52.486;13.386;2023-08-24T05:56:32;101150.53;;;24.21;100.00
5356;BME280;70449;52.486;13.386;2023-08-24T05:58:59;101146.00;;;24.13;100.00
5356;BME280;70449;52.486;13.386;2023-08-24T06:01:28;101139.84;;;24.30;100.00
5356;BME280;70449;52.486;13.386;2023-08-24T06:03:55;101141.50;;;24.58;100.00
5356;BME280;70449;52.486;13.386;2023-08-24T06:06:22;101143.09;;;24.32;100.00
5356;BME280;70449;52.486;13.386;2023-08-24T06:08:49;101142.97;;;24.78;100.00
5356;BME280;70449;52.486;13.386;2023-08-24T06:11:17;101139.75;;;25.10;100.00
5356;BME280;70449;52.486;13.386;2023-08-24T06:13:44;101145.38;;;24.23;100.00
5356;BME280;70449;52.486;13.386;2023-08-24T06:16:11;101147.28;;;24.72;100.00
5356;BME280;70449;52.486;13.386;2023-08-24T06:18:41;101155.78;;;24.49;100.00
5356;BME280;70449;52.486;13.386;2023-08-24T06:21:09;101152.19;;;24.49;100.00
5356;BME280;70449;52.486;13.386;2023-08-24T06:23:36;101152.25;;;24.56;100.00
5356;BME280;70449;52.486;13.386;2023-08-24T06:26:03;101157.81;;;24.26;100.00
5356;BME280;70449;52.486;13.386;2023-08-24T06:28:31;101145.28;;;24.42;100.00
5356;BME280;70449;52.486;13.386;2023-08-24T06:31:00;101146.44;;;24.15;100.00
5356;BME280;70449;52.486;13.386;2023-08-24T06:33:29;101144.81;;;24.14;100.00
5356;BME280;70449;52.486;13.386;2023-08-24T06:36:02;101145.97;;;24.39;100.00
5356;BME280;70449;52.486;13.386;2023-08-24T06:38:31;101148.50;;;23.95;100.00
5356;BME280;70449;52.486;13.386;2023-08-24T06:40:59;101145.72;;;24.75;100.00
5356;BME280;70449;52.486;13.386;2023-08-24T06:43:27;101139.47;;;24.88;100.00
5356;BME280;70449;52.486;13.386;2023-08-24T06:45:55;101145.25;;;25.03;100.00
5356;BME280;70449;52.486;13.386;2023-08-24T06:48:22;101144.25;;;25.18;100.00
5356;BME280;70449;52.486;13.386;2023-08-24T06:50:49;101149.50;;;24.89;100.00
5356;BME280;70449;52.486;13.386;2023-08-24T06:53:19;101149.25;;;25.02;100.00
5356;BME280;70449;52.486;13.386;2023-08-24T06:55:54;101149.63;;;25.75;100.00
5356;BME280;70449;52.486;13.386;2023-08-24T06:58:24;101152.03;;;25.36;100.00
5356;BME280;70449;52.486;13.386;2023-08-24T07:00:50;101157.00;;;25.49;100.00
5356;BME280;70449;52.486;13.386;2023-08-24T07:03:17;101155.44;;;25.52;100.00
5356;BME280;70449;52.486;13.386;2023-08-24T07:05:44;101163.38;;;25.43;100.00
5356;BME280;70449;52.486;13.386;2023-08-24T07:08:13;101171.06;;;25.94;100.00
5356;BME280;70449;52.486;13.386;2023-08-24T07:10:42;101164.81;;;25.29;100.00
5356;BME280;70449;52.486;13.386;2023-08-24T07:13:10;101164.91;;;25.37;100.00
5356;BME280;70449;52.486;13.386;2023-08-24T07:15:37;101167.28;;;26.23;100.00
5356;BME280;70449;52.486;13.386;2023-08-24T07:18:04;101170.72;;;25.99;100.00
5356;BME280;70449;52.486;13.386;2023-08-24T07:20:33;101162.31;;;26.54;100.00
5356;BME280;70449;52.486;13.386;2023-08-24T07:23:01;101158.69;;;26.57;100.00
5356;BME280;70449;52.486;13.386;2023-08-24T07:25:28;101158.50;;;27.02;100.00
5356;BME280;70449;52.486;13.386;2023-08-24T07:27:57;101152.81;;;26.84;100.00
5356;BME280;70449;52.486;13.386;2023-08-24T07:30:25;101161.81;;;26.41;100.00
5356;BME280;70449;52.486;13.386;2023-08-24T07:32:53;101159.66;;;26.90;100.00
5356;BME280;70449;52.486;13.386;2023-08-24T07:35:20;101157.00;;;26.45;100.00
5356;BME280;70449;52.486;13.386;2023-08-24T07:37:50;101148.38;;;26.83;100.00
5356;BME280;70449;52.486;13.386;2023-08-24T07:40:18;101153.16;;;26.72;100.00
5356;BME280;70449;52.486;13.386;2023-08-24T07:42:45;101150.69;;;26.59;100.00
5356;BME280;70449;52.486;13.386;2023-08-24T07:45:14;101138.84;;;27.09;100.00
5356;BME280;70449;52.486;13.386;2023-08-24T07:47:42;101152.28;;;26.60;100.00
5356;BME280;70449;52.486;13.386;2023-08-24T07:50:10;101154.63;;;27.35;100.00
5356;BME280;70449;52.486;13.386;2023-08-24T07:52:38;101151.56;;;26.78;100.00
5356;BME280;70449;52.486;13.386;2023-08-24T07:55:07;101145.59;;;26.90;100.00
5356;BME280;70449;52.486;13.386;2023-08-24T07:57:36;101146.56;;;27.33;100.00
5356;BME280;70449;52.486;13.386;2023-08-24T08:00:04;101150.78;;;26.88;100.00
5356;BME280;70449;52.486;13.386;2023-08-24T08:02:33;101146.97;;;27.39;100.00
5356;BME280;70449;52.486;13.386;2023-08-24T08:05:02;101145.25;;;27.06;100.00
5356;BME280;70449;52.486;13.386;2023-08-24T08:07:29;101129.66;;;27.37;100.00
5356;BME280;70449;52.486;13.386;2023-08-24T08:09:56;101138.97;;;28.09;100.00
5356;BME280;70449;52.486;13.386;2023-08-24T08:12:24;101148.59;;;27.54;100.00
5356;BME280;70449;52.486;13.386;2023-08-24T08:14:51;101151.84;;;27.71;100.00
5356;BME280;70449;52.486;13.386;2023-08-24T08:17:18;101151.34;;;28.73;88.26
5356;BME280;70449;52.486;13.386;2023-08-24T08:19:47;101154.53;;;27.17;100.00
5356;BME280;70449;52.486;13.386;2023-08-24T08:22:14;101143.78;;;27.66;100.00
5356;BME280;70449;52.486;13.386;2023-08-24T08:24:41;101135.69;;;28.54;93.33
5356;BME280;70449;52.486;13.386;2023-08-24T08:27:09;101126.03;;;28.40;93.14
5356;BME280;70449;52.486;13.386;2023-08-24T08:29:36;101136.56;;;28.04;98.24
5356;BME280;70449;52.486;13.386;2023-08-24T08:32:04;101123.66;;;27.56;99.41
5356;BME280;70449;52.486;13.386;2023-08-24T08:34:31;101121.25;;;28.23;98.54
5356;BME280;70449;52.486;13.386;2023-08-24T08:37:01;101116.91;;;29.10;88.37
5356;BME280;70449;52.486;13.386;2023-08-24T08:39:28;101116.66;;;29.49;83.90
5356;BME280;70449;52.486;13.386;2023-08-24T08:41:56;101123.91;;;28.80;85.89
5356;BME280;70449;52.486;13.386;2023-08-24T08:44:23;101110.97;;;28.86;87.50
5356;BME280;70449;52.486;13.386;2023-08-24T08:46:51;101106.94;;;28.91;88.77
5356;BME280;70449;52.486;13.386;2023-08-24T08:49:19;101113.41;;;28.81;87.47
5356;BME280;70449;52.486;13.386;2023-08-24T08:51:47;101113.97;;;28.29;92.46
5356;BME280;70449;52.486;13.386;2023-08-24T08:54:16;101104.34;;;28.12;92.40
5356;BME280;70449;52.486;13.386;2023-08-24T08:56:43;101107.47;;;28.54;88.09
5356;BME280;70449;52.486;13.386;2023-08-24T08:59:12;101110.66;;;28.70;87.49
5356;BME280;70449;52.486;13.386;2023-08-24T09:01:41;101097.53;;;28.02;94.53
5356;BME280;70449;52.486;13.386;2023-08-24T09:04:11;101096.28;;;28.18;92.02
5356;BME280;70449;52.486;13.386;2023-08-24T09:06:39;101107.56;;;28.14;92.35
5356;BME280;70449;52.486;13.386;2023-08-24T09:09:06;101095.44;;;28.28;92.95
5356;BME280;70449;52.486;13.386;2023-08-24T09:11:36;101090.63;;;28.32;93.00
5356;BME280;70449;52.486;13.386;2023-08-24T09:14:04;101101.09;;;28.28;93.62
5356;BME280;70449;52.486;13.386;2023-08-24T09:16:33;101096.34;;;27.96;98.14
5356;BME280;70449;52.486;13.386;2023-08-24T09:19:05;101092.66;;;29.23;88.56
5356;BME280;70449;52.486;13.386;2023-08-24T09:21:37;101089.84;;;28.17;91.66
5356;BME280;70449;52.486;13.386;2023-08-24T09:24:06;101090.09;;;29.39;81.66
5356;BME280;70449;52.486;13.386;2023-08-24T09:26:37;101084.88;;;28.68;88.20
5356;BME280;70449;52.486;13.386;2023-08-24T09:29:12;101082.28;;;28.99;86.33
5356;BME280;70449;52.486;13.386;2023-08-24T09:31:40;101069.56;;;29.35;82.87
5356;BME280;70449;52.486;13.386;2023-08-24T09:34:10;101074.47;;;29.24;83.58
5356;BME280;70449;52.486;13.386;2023-08-24T09:36:38;101070.16;;;29.09;82.33
5356;BME280;70449;52.486;13.386;2023-08-24T09:39:06;101070.72;;;28.75;89.56
5356;BME280;70449;52.486;13.386;2023-08-24T09:41:43;101062.53;;;28.99;80.20
5356;BME280;70449;52.486;13.386;2023-08-24T09:44:11;101059.50;;;29.31;74.35
5356;BME280;70449;52.486;13.386;2023-08-24T09:46:39;101069.28;;;29.23;76.79
5356;BME280;70449;52.486;13.386;2023-08-24T09:49:09;101058.06;;;29.01;78.23
5356;BME280;70449;52.486;13.386;2023-08-24T09:51:40;101063.00;;;28.86;78.36
5356;BME280;70449;52.486;13.386;2023-08-24T09:54:08;101057.06;;;28.63;82.25
5356;BME280;70449;52.486;13.386;2023-08-24T09:56:38;101052.19;;;29.41;77.06
5356;BME280;70449;52.486;13.386;2023-08-24T09:59:12;101049.50;;;29.19;79.04
5356;BME280;70449;52.486;13.386;2023-08-24T10:01:43;101047.06;;;29.25;74.28
5356;BME280;70449;52.486;13.386;2023-08-24T10:04:10;101045.50;;;29.72;68.62
5356;BME280;70449;52.486;13.386;2023-08-24T10:06:40;101051.25;;;28.00;77.38
5356;BME280;70449;52.486;13.386;2023-08-24T10:09:11;101047.97;;;28.23;79.36
5356;BME280;70449;52.486;13.386;2023-08-24T10:11:45;101054.47;;;27.98;86.66
5356;BME280;70449;52.486;13.386;2023-08-24T10:14:23;101041.25;;;28.83;80.99
5356;BME280;70449;52.486;13.386;2023-08-24T10:16:53;101035.22;;;28.85;82.59
5356;BME280;70449;52.486;13.386;2023-08-24T10:19:22;101045.16;;;29.07;78.84
5356;BME280;70449;52.486;13.386;2023-08-24T10:21:51;101054.88;;;29.03;74.10
5356;BME280;70449;52.486;13.386;2023-08-24T10:24:22;101047.50;;;29.16;77.10
5356;BME280;70449;52.486;13.386;2023-08-24T10:26:50;101042.53;;;28.71;81.04
5356;BME280;70449;52.486;13.386;2023-08-24T10:29:20;101047.69;;;28.87;82.38
5356;BME280;70449;52.486;13.386;2023-08-24T10:31:49;101026.94;;;29.19;79.24
5356;BME280;70449;52.486;13.386;2023-08-24T10:34:17;101036.78;;;28.89;81.58
5356;BME280;70449;52.486;13.386;2023-08-24T10:36:47;101030.88;;;28.66;86.67
5356;BME280;70449;52.486;13.386;2023-08-24T10:39:15;101039.44;;;29.18;82.32
5356;BME280;70449;52.486;13.386;2023-08-24T10:41:49;101037.22;;;29.89;75.58
5356;BME280;70449;52.486;13.386;2023-08-24T10:44:24;101034.28;;;30.99;68.01
5356;BME280;70449;52.486;13.386;2023-08-24T10:47:11;101038.25;;;29.68;71.88
5356;BME280;70449;52.486;13.386;2023-08-24T10:49:39;101047.75;;;28.77;82.66
5356;BME280;70449;52.486;13.386;2023-08-24T10:52:23;101033.63;;;29.43;78.67
5356;BME280;70449;52.486;13.386;2023-08-24T10:54:52;101036.34;;;29.99;76.62
5356;BME280;70449;52.486;13.386;2023-08-24T10:57:22;101024.72;;;29.45;75.83
5356;BME280;70449;52.486;13.386;2023-08-24T11:00:06;101029.22;;;29.83;75.26
5356;BME280;70449;52.486;13.386;2023-08-24T11:02:43;101021.69;;;30.45;70.74
5356;BME280;70449;52.486;13.386;2023-08-24T11:05:19;101026.41;;;30.21;70.10
5356;BME280;70449;52.486;13.386;2023-08-24T11:07:52;101016.09;;;30.69;66.32
5356;BME280;70449;52.486;13.386;2023-08-24T11:10:21;101002.91;;;30.89;66.44
5356;BME280;70449;52.486;13.386;2023-08-24T11:13:12;100999.75;;;30.22;69.22
5356;BME280;70449;52.486;13.386;2023-08-24T11:15:42;100994.91;;;30.19;72.25
5356;BME280;70449;52.486;13.386;2023-08-24T11:18:21;100991.31;;;29.81;74.25
5356;BME280;70449;52.486;13.386;2023-08-24T11:20:51;100977.03;;;30.30;70.18
5356;BME280;70449;52.486;13.386;2023-08-24T11:23:21;100963.13;;;30.69;68.41
5356;BME280;70449;52.486;13.386;2023-08-24T11:25:50;100968.13;;;31.39;64.45
5356;BME280;70449;52.486;13.386;2023-08-24T11:28:21;100968.03;;;31.67;63.48
5356;BME280;70449;52.486;13.386;2023-08-24T11:30:49;100974.03;;;31.92;59.27
5356;BME280;70449;52.486;13.386;2023-08-24T11:33:28;100974.00;;;30.44;65.08
5356;BME280;70449;52.486;13.386;2023-08-24T11:35:56;100957.09;;;30.67;66.22
5356;BME280;70449;52.486;13.386;2023-08-24T11:38:24;100959.19;;;30.33;68.60
5356;BME280;70449;52.486;13.386;2023-08-24T11:40:51;100957.38;;;29.85;70.04
5356;BME280;70449;52.486;13.386;2023-08-24T11:43:24;100944.84;;;30.78;67.58
5356;BME280;70449;52.486;13.386;2023-08-24T11:45:54;100941.03;;;31.58;61.87
5356;BME280;70449;52.486;13.386;2023-08-24T11:48:24;100927.75;;;31.32;61.88
5356;BME280;70449;52.486;13.386;2023-08-24T11:50:53;100936.50;;;30.40;68.22
5356;BME280;70449;52.486;13.386;2023-08-24T11:53:21;100935.94;;;31.50;62.99
5356;BME280;70449;52.486;13.386;2023-08-24T11:55:52;100921.09;;;31.66;60.10
5356;BME280;70449;52.486;13.386;2023-08-24T11:58:19;100929.13;;;30.73;65.21
5356;BME280;70449;52.486;13.386;2023-08-24T12:00:47;100921.63;;;30.90;63.29
5356;BME280;70449;52.486;13.386;2023-08-24T12:03:16;100925.69;;;31.99;56.75
5356;BME280;70449;52.486;13.386;2023-08-24T12:05:43;100917.38;;;31.25;61.25
5356;BME280;70449;52.486;13.386;2023-08-24T12:08:11;100924.19;;;31.95;57.17
5356;BME280;70449;52.486;13.386;2023-08-24T12:10:42;100916.34;;;31.39;58.61
5356;BME280;70449;52.486;13.386;2023-08-24T12:13:11;100918.59;;;31.24;60.93
5356;BME280;70449;52.486;13.386;2023-08-24T12:15:40;100929.50;;;32.29;56.20
5356;BME280;70449;52.486;13.386;2023-08-24T12:18:09;100927.00;;;31.95;57.70
5356;BME280;70449;52.486;13.386;2023-08-24T12:20:39;100915.56;;;33.36;51.92
5356;BME280;70449;52.486;13.386;2023-08-24T12:23:07;100907.69;;;32.79;53.58
5356;BME280;70449;52.486;13.386;2023-08-24T12:25:37;100899.22;;;33.40;51.71
5356;BME280;70449;52.486;13.386;2023-08-24T12:28:13;100900.53;;;33.07;52.27
5356;BME280;70449;52.486;13.386;2023-08-24T12:30:48;100894.00;;;33.68;52.54
5356;BME280;70449;52.486;13.386;2023-08-24T12:33:26;100893.00;;;34.81;48.69
5356;BME280;70449;52.486;13.386;2023-08-24T12:35:55;100889.75;;;35.04;47.85
5356;BME280;70449;52.486;13.386;2023-08-24T12:38:24;100894.00;;;33.68;51.86
5356;BME280;70449;52.486;13.386;2023-08-24T12:40:53;100886.88;;;34.44;47.07
5356;BME280;70449;52.486;13.386;2023-08-24T12:43:20;100890.28;;;34.39;47.91
5356;BME280;70449;52.486;13.386;2023-08-24T12:45:48;100879.34;;;34.24;46.45
5356;BME280;70449;52.486;13.386;2023-08-24T12:48:15;100872.09;;;33.81;47.60
5356;BME280;70449;52.486;13.386;2023-08-24T12:50:42;100860.03;;;33.19;49.16